Time;durP1;ratioP1;P1;durP2;ratioP2;P2;SDS_P1;SDS_P2;PMS_P1;PMS_P2;Temp;Humidity;BMP_temperature;BMP_pressure;BME280_temperature;BME280_humidity;BME280_pressure;Samples;Min_cycle;Max_cycle;Signal;HPM_P1;HPM_P2
2022/01/08 00:02:12;;;;;;;82.00;36.50;;;;;;;-2.71;58.34;99097.29;219517;1282;139834;-55
2022/01/08 00:07:15;;;;;;;80.00;36.60;;;;;;;-2.71;58.72;99092.08;219548;1282;139372;-60
2022/01/08 00:12:18;;;;;;;81.30;37.90;;;;;;;-2.70;58.86;99088.61;219640;1284;139765;-58
2022/01/08 00:17:22;;;;;;;87.60;37.40;;;;;;;-2.71;58.75;99091.73;219702;1284;139365;-59
2022/01/08 00:22:25;;;;;;;91.10;40.60;;;;;;;-2.73;58.82;99087.40;219971;1282;139152;-60
2022/01/08 00:27:28;;;;;;;104.90;43.50;;;;;;;-2.79;58.75;99089.71;219374;1282;139909;-60
2022/01/08 00:32:31;;;;;;;98.90;42.70;;;;;;;-2.84;58.76;99080.55;219726;1283;139882;-59
2022/01/08 00:37:37;;;;;;;85.20;39.80;;;;;;;-2.89;58.74;99076.61;219772;1282;139379;-61
2022/01/08 00:42:40;;;;;;;;;;;;;;;-2.92;58.89;99069.85;219789;1282;139486;-62
2022/01/08 00:47:43;;;;;;;77.10;35.30;;;;;;;-2.99;58.92;99060.35;219824;1282;125799;-62
2022/01/08 00:52:46;;;;;;;77.00;33.10;;;;;;;-3.02;59.07;99049.09;219552;1282;141152;-61
2022/01/08 00:57:49;;;;;;;86.70;38.70;;;;;;;-3.05;59.25;99044.61;219690;1284;139429;-59
2022/01/08 01:02:53;;;;;;;88.40;39.50;;;;;;;-3.05;59.35;99047.89;219737;1283;139139;-59
2022/01/08 01:07:56;;;;;;;97.70;39.70;;;;;;;-3.07;59.29;99044.80;219750;1284;139960;-61
2022/01/08 01:12:59;;;;;;;90.00;39.10;;;;;;;-3.08;59.39;99041.15;219709;1282;139741;-61
2022/01/08 01:18:03;;;;;;;99.40;42.80;;;;;;;-3.14;59.25;99041.02;219841;1282;139248;-59
2022/01/08 01:23:13;;;;;;;106.40;43.90;;;;;;;-3.19;59.35;99029.42;219532;1284;139506;-59
2022/01/08 01:49:47;;;;;;;97.00;41.60;;;;;;;-3.32;59.53;99014.60;219727;1282;140039;-58
2022/01/08 01:54:50;;;;;;;103.10;42.50;;;;;;;-3.37;59.65;99018.28;219329;1282;139443;-60
2022/01/08 01:59:53;;;;;;;101.90;43.30;;;;;;;-3.37;59.52;99013.60;219927;1282;139891;-61
2022/01/08 02:04:56;;;;;;;102.40;43.10;;;;;;;-3.40;59.58;99006.51;219709;1282;139783;-61
2022/01/08 02:09:59;;;;;;;97.20;42.30;;;;;;;-3.42;59.65;98997.85;219889;1282;142238;-61
2022/01/08 02:15:03;;;;;;;96.00;44.10;;;;;;;-3.46;59.60;98987.83;219719;1282;139637;-63
2022/01/08 02:20:08;;;;;;;103.90;45.50;;;;;;;-3.51;59.64;98993.73;219598;1283;142434;-61
2022/01/08 02:25:11;;;;;;;102.20;46.70;;;;;;;-3.50;59.98;98974.14;219432;1282;139561;-61
2022/01/08 02:30:14;;;;;;;98.00;45.20;;;;;;;-3.46;59.86;98977.42;219517;1282;139801;-59
2022/01/08 02:35:21;;;;;;;103.70;44.00;;;;;;;-3.50;59.79;98964.26;219738;1284;139851;-61
2022/01/08 02:40:24;;;;;;;102.70;45.20;;;;;;;-3.57;59.69;98959.45;219880;1283;140713;-59
2022/01/08 02:45:28;;;;;;;105.30;46.20;;;;;;;-3.63;59.72;98961.40;219807;1282;139997;-60
2022/01/08 02:50:31;;;;;;;98.80;45.10;;;;;;;-3.67;59.87;98967.32;219827;1282;140315;-59
2022/01/08 02:55:36;;;;;;;101.40;44.50;;;;;;;-3.69;59.79;98963.34;219723;1284;139626;-62
2022/01/08 03:00:39;;;;;;;102.20;46.20;;;;;;;-3.75;59.87;98959.39;219771;1282;139598;-62
2022/01/08 03:05:42;;;;;;;95.90;40.60;;;;;;;-3.77;59.82;98958.55;219760;1282;140010;-59
2022/01/08 03:10:45;;;;;;;87.60;38.80;;;;;;;-3.71;60.27;98960.23;219803;1282;139582;-57
2022/01/08 03:15:48;;;;;;;87.70;40.90;;;;;;;-3.63;60.34;98957.24;219400;1284;139335;-63
2022/01/08 03:21:01;;;;;;;87.50;39.60;;;;;;;-3.54;60.48;98949.54;219808;1284;138876;-61
2022/01/08 03:26:05;;;;;;;80.60;38.20;;;;;;;-3.44;60.35;98944.45;219818;1282;139930;-59
2022/01/08 03:31:09;;;;;;;92.10;40.50;;;;;;;-3.42;60.08;98936.82;219844;1282;141545;-60
2022/01/08 03:36:13;;;;;;;93.20;41.80;;;;;;;-3.41;60.12;98931.24;219796;1282;140338;-58
2022/01/08 03:41:16;;;;;;;82.90;41.20;;;;;;;-3.41;60.11;98936.46;219760;1282;140436;-58
2022/01/08 03:46:20;;;;;;;104.60;46.20;;;;;;;-3.41;60.01;98921.88;219819;1284;139712;-57
2022/01/08 03:51:23;;;;;;;96.60;44.80;;;;;;;-3.43;59.85;98913.41;219792;1282;139806;-59
2022/01/08 03:56:27;;;;;;;97.70;44.30;;;;;;;-3.47;59.82;98905.98;219737;1282;139671;-62
2022/01/08 04:01:30;;;;;;;101.80;44.80;;;;;;;-3.52;59.69;98911.05;219715;1282;139708;-62
2022/01/08 04:06:33;;;;;;;92.20;41.40;;;;;;;-3.65;59.52;98911.48;219896;1281;141086;-58
2022/01/08 04:11:36;;;;;;;88.20;40.40;;;;;;;-3.67;59.79;98910.11;219945;1281;140628;-60
2022/01/08 04:16:43;;;;;;;85.90;40.40;;;;;;;-3.69;60.02;98903.02;219812;1282;139993;-60
2022/01/08 04:22:10;;;;;;;95.90;41.60;;;;;;;-3.70;60.06;98898.70;219719;1282;140701;-60
2022/01/08 04:27:13;;;;;;;96.30;41.90;;;;;;;-3.68;60.20;98892.61;219722;1284;139496;-62
2022/01/08 04:32:16;;;;;;;98.90;44.20;;;;;;;-3.62;60.51;98891.17;219747;1284;139592;-63
2022/01/08 04:37:19;;;;;;;81.30;38.90;;;;;;;-3.49;60.39;98895.42;219958;1281;139441;-59
2022/01/08 04:42:22;;;;;;;82.80;38.40;;;;;;;-3.49;60.21;98890.05;219799;1282;139238;-61
2022/01/08 04:47:25;;;;;;;91.40;41.10;;;;;;;-3.50;60.12;98892.29;219761;1282;140051;-57
2022/01/08 04:52:28;;;;;;;86.60;39.80;;;;;;;-3.49;60.18;98893.85;219834;1282;140232;-62
2022/01/08 04:57:32;;;;;;;128.10;61.90;;;;;;;-3.52;60.28;98899.77;219772;1282;140135;-60
2022/01/08 05:02:35;;;;;;;84.00;37.20;;;;;;;-3.41;60.69;98891.89;220079;1281;140695;-58
2022/01/08 05:07:39;;;;;;;89.50;40.10;;;;;;;-3.39;60.12;98888.05;219945;1281;141448;-57
2022/01/08 05:12:42;;;;;;;94.80;46.20;;;;;;;-3.42;60.02;98882.86;219860;1282;142046;-59
2022/01/08 05:17:52;;;;;;;90.50;39.20;;;;;;;-3.29;60.38;98884.49;219831;1282;140359;-60
2022/01/08 05:23:00;;;;;;;82.70;38.60;;;;;;;-3.32;59.89;98889.73;219781;1284;139664;-61
2022/01/08 05:28:03;;;;;;;90.10;38.90;;;;;;;-3.44;59.75;98886.70;219995;1282;139016;-61
2022/01/08 05:33:06;;;;;;;88.10;38.50;;;;;;;-3.50;59.81;98887.27;219760;1282;139658;-62
2022/01/08 05:38:09;;;;;;;87.20;38.70;;;;;;;-3.54;59.84;98888.35;219951;1281;139917;-61
2022/01/08 05:43:12;;;;;;;81.70;38.10;;;;;;;-3.56;59.81;98893.90;219790;1282;141390;-62
2022/01/08 05:48:16;;;;;;;78.20;36.70;;;;;;;-3.62;59.63;98889.29;220000;1281;140325;-62
2022/01/08 05:53:21;;;;;;;405.60;246.90;;;;;;;-3.71;59.52;98890.73;219814;1281;141278;-61
2022/01/08 05:58:24;;;;;;;89.60;41.60;;;;;;;-3.66;60.18;98888.95;219887;1282;140982;-60
2022/01/08 06:03:26;;;;;;;81.70;37.60;;;;;;;-3.67;59.83;98885.50;219766;1284;140538;-58
2022/01/08 06:08:30;;;;;;;76.90;35.70;;;;;;;-3.76;59.73;98884.35;219786;1282;140900;-59
2022/01/08 06:13:32;;;;;;;76.60;35.90;;;;;;;-3.80;59.88;98881.44;219785;1282;139488;-62
2022/01/08 06:18:36;;;;;;;70.10;33.40;;;;;;;-3.82;59.98;98881.42;219820;1282;139569;-60
2022/01/08 06:23:39;;;;;;;66.20;31.10;;;;;;;-3.86;59.97;98885.29;219897;1282;139645;-66
2022/01/08 06:28:43;;;;;;;65.60;30.10;;;;;;;-3.88;60.10;98884.44;219897;1282;139568;-68
2022/01/08 06:33:47;;;;;;;67.50;32.00;;;;;;;-3.89;60.28;98882.20;219624;1284;139777;-61
2022/01/08 06:38:51;;;;;;;74.20;33.20;;;;;;;-3.91;60.19;98885.16;219802;1282;139235;-64
2022/01/08 06:43:54;;;;;;;76.20;34.70;;;;;;;-3.94;60.31;98889.16;219779;1282;140157;-63
2022/01/08 06:48:56;;;;;;;77.20;36.40;;;;;;;-3.98;60.12;98886.92;219789;1282;139586;-64
2022/01/08 06:54:00;;;;;;;72.80;34.00;;;;;;;-4.04;60.03;98880.90;219769;1284;139454;-60
2022/01/08 06:59:03;;;;;;;72.70;33.40;;;;;;;-4.09;60.17;98876.77;219828;1281;139675;-62
2022/01/08 07:04:06;;;;;;;68.10;33.50;;;;;;;-4.07;60.33;98879.53;219886;1282;139617;-61
2022/01/08 07:09:09;;;;;;;78.60;35.50;;;;;;;-4.09;60.31;98883.17;219789;1282;141304;-61
2022/01/08 07:14:12;;;;;;;79.80;34.80;;;;;;;-4.06;60.42;98885.06;219730;1284;140463;-61
2022/01/08 07:19:15;;;;;;;80.30;36.10;;;;;;;-3.97;60.71;98875.83;219762;1282;139724;-60
2022/01/08 07:24:18;;;;;;;73.60;35.80;;;;;;;-3.89;60.76;98871.79;219823;1281;140094;-62
2022/01/08 07:29:21;;;;;;;78.30;36.40;;;;;;;-3.82;60.71;98876.25;219871;1282;139624;-62
2022/01/08 07:34:24;;;;;;;78.00;36.90;;;;;;;-3.73;60.79;98879.48;219772;1283;142413;-63
2022/01/08 07:39:26;;;;;;;76.10;35.60;;;;;;;-3.59;60.87;98875.56;219813;1282;139880;-63
2022/01/08 07:44:29;;;;;;;81.50;36.50;;;;;;;-3.47;60.97;98863.15;219750;1284;140678;-61
2022/01/08 07:49:33;;;;;;;77.00;36.70;;;;;;;-3.32;61.14;98854.52;219750;1280;140428;-62
2022/01/08 07:54:36;;;;;;;78.40;36.00;;;;;;;-3.18;61.08;98847.09;219820;1282;139572;-62
2022/01/08 07:59:41;;;;;;;83.80;37.40;;;;;;;-3.04;61.19;98844.70;219797;1282;139827;-62
2022/01/08 08:04:44;;;;;;;80.40;37.10;;;;;;;-2.89;61.18;98842.09;220165;1282;139591;-61
2022/01/08 08:09:47;;;;;;;77.10;36.20;;;;;;;-2.72;61.34;98834.95;219837;1282;139473;-65
2022/01/08 08:14:50;;;;;;;78.70;36.10;;;;;;;-2.56;61.29;98827.98;219792;1282;139525;-66
2022/01/08 08:19:53;;;;;;;67.70;32.70;;;;;;;-2.37;61.23;98822.54;219732;1284;139598;-64
2022/01/08 08:24:56;;;;;;;68.10;31.80;;;;;;;-2.18;61.19;98817.91;219812;1284;139313;-65
2022/01/08 08:29:59;;;;;;;60.70;29.30;;;;;;;-1.99;61.13;98820.95;219791;1282;140072;-64
2022/01/08 08:35:03;;;;;;;58.10;27.60;;;;;;;-1.77;61.10;98821.46;219872;1282;141177;-60
2022/01/08 08:40:08;;;;;;;29.80;13.80;;;;;;;-1.53;60.64;98826.11;219962;1282;140037;-64
2022/01/08 08:45:12;;;;;;;29.50;14.50;;;;;;;-1.37;59.52;98818.89;219395;1284;139837;-63
2022/01/08 08:50:16;;;;;;;27.60;14.20;;;;;;;-1.25;58.94;98821.63;219675;1282;139431;-61
2022/01/08 08:55:19;;;;;;;35.60;16.20;;;;;;;-1.15;58.51;98821.63;219629;1282;140063;-63
2022/01/08 09:00:22;;;;;;;41.30;17.30;;;;;;;-1.05;58.07;98825.25;219681;1282;139848;-62
2022/01/08 09:05:29;;;;;;;34.20;16.30;;;;;;;-0.97;57.77;98827.21;219636;1283;139714;-62
2022/01/08 09:10:33;;;;;;;37.20;17.50;;;;;;;-0.83;57.88;98823.80;219847;1282;139587;-59
2022/01/08 09:15:41;;;;;;;38.50;17.30;;;;;;;-0.67;57.67;98820.16;219829;1282;139673;-62
2022/01/08 09:20:44;;;;;;;37.90;17.40;;;;;;;-0.60;57.47;98819.52;219807;1282;139549;-59
2022/01/08 09:25:47;;;;;;;337.20;151.20;;;;;;;-0.48;57.61;98808.81;219944;1281;139603;-61
2022/01/08 09:30:51;;;;;;;43.20;21.30;;;;;;;-0.25;57.57;98807.07;219952;1282;140208;-60
2022/01/08 09:35:54;;;;;;;35.30;17.50;;;;;;;-0.08;57.22;98807.20;219678;1282;138776;-61
2022/01/08 09:40:57;;;;;;;40.30;16.80;;;;;;;0.08;57.00;98800.73;219665;1282;139659;-59
2022/01/08 09:46:00;;;;;;;34.10;16.40;;;;;;;0.24;56.88;98787.30;219729;1283;139301;-61
2022/01/08 09:51:03;;;;;;;42.10;16.80;;;;;;;0.34;56.54;98785.12;219852;1282;139208;-60
2022/01/08 09:56:06;;;;;;;36.50;16.00;;;;;;;0.41;56.16;98787.91;219606;1282;139050;-60
2022/01/08 10:01:25;;;;;;;35.50;16.10;;;;;;;0.43;56.03;98782.09;219921;1282;139414;-61
2022/01/08 10:06:30;;;;;;;30.20;15.50;;;;;;;0.46;55.81;98788.46;219747;1282;140009;-61
2022/01/08 10:11:33;;;;;;;33.70;16.40;;;;;;;0.47;55.55;98788.27;219692;1282;140006;-60
2022/01/08 10:22:15;;;;;;;32.30;16.50;;;;;;;0.62;56.02;98777.77;219883;1282;139886;-60
2022/01/08 10:27:19;;;;;;;40.20;18.20;;;;;;;0.77;55.89;98765.50;219761;1282;139245;-60
2022/01/08 10:32:26;;;;;;;33.30;14.30;;;;;;;0.89;55.81;98765.70;219738;1282;139021;-61
2022/01/08 10:37:29;;;;;;;34.70;14.80;;;;;;;0.94;55.37;98771.31;219686;1282;139743;-60
2022/01/08 10:42:38;;;;;;;30.70;14.10;;;;;;;0.96;55.10;98769.35;219667;1282;140021;-60
2022/01/08 10:47:42;;;;;;;37.80;13.90;;;;;;;0.96;54.68;98772.15;219961;1282;138815;-60
2022/01/08 10:52:48;;;;;;;25.80;12.40;;;;;;;1.00;54.52;98766.95;219883;1282;140214;-61
2022/01/08 10:57:51;;;;;;;30.50;13.40;;;;;;;1.05;54.31;98769.45;219287;1282;140491;-60
2022/01/08 11:02:54;;;;;;;31.20;12.70;;;;;;;1.10;54.17;98765.45;219924;1283;139093;-61
2022/01/08 11:08:13;;;;;;;31.90;13.20;;;;;;;1.15;54.37;98760.59;219754;1282;139211;-59
2022/01/08 11:13:18;;;;;;;42.00;12.70;;;;;;;1.27;54.35;98754.33;219626;1283;139139;-60
2022/01/08 11:18:23;;;;;;;35.30;12.90;;;;;;;1.36;54.31;98744.78;219669;1283;139867;-60
2022/01/08 11:23:35;;;;;;;36.20;12.80;;;;;;;1.43;54.00;98739.52;219726;1284;139402;-60
2022/01/08 11:28:43;;;;;;;37.40;12.40;;;;;;;1.53;54.03;98737.13;219607;1284;139832;-61
2022/01/08 11:33:50;;;;;;;31.40;11.80;;;;;;;1.65;54.11;98732.73;219724;1283;139630;-62
2022/01/08 11:38:56;;;;;;;37.20;12.60;;;;;;;1.74;53.90;98726.17;219738;1283;139327;-63
2022/01/08 11:43:59;;;;;;;;;;;;;;;1.83;53.84;98724.98;219638;1284;139346;-66
2022/01/08 11:49:03;;;;;;;82.80;39.10;;;;;;;2.10;56.08;98726.39;219721;1284;126613;-62
2022/01/08 11:54:07;;;;;;;41.00;14.60;;;;;;;3.51;57.07;98717.66;219728;1284;138869;-65
2022/01/08 11:59:17;;;;;;;36.10;13.00;;;;;;;3.47;53.91;98717.48;219692;1283;140870;-63
2022/01/08 12:04:27;;;;;;;39.50;12.40;;;;;;;3.28;53.01;98710.48;219827;1284;140271;-62
2022/01/08 12:09:34;;;;;;;33.00;11.90;;;;;;;3.08;52.53;98713.88;219928;1283;139595;-64
2022/01/08 12:14:38;;;;;;;31.80;11.00;;;;;;;2.97;52.57;98715.34;219409;1283;139332;-64
2022/01/08 12:19:46;;;;;;;21.60;10.50;;;;;;;2.85;52.23;98710.49;219808;1284;139204;-63
2022/01/08 12:24:58;;;;;;;29.20;10.30;;;;;;;2.70;52.07;98713.67;219549;1283;138875;-63
2022/01/08 12:30:17;;;;;;;30.10;10.90;;;;;;;2.58;51.88;98716.70;219512;1283;150183;-63
2022/01/08 12:35:41;;;;;;;29.00;11.10;;;;;;;2.49;51.86;98709.52;219721;1282;139047;-62
2022/01/08 12:40:49;;;;;;;37.40;12.30;;;;;;;2.41;51.82;98700.48;219921;1282;141372;-62
2022/01/08 12:46:19;;;;;;;31.40;12.10;;;;;;;2.43;52.00;98688.20;219529;1282;139360;-62
2022/01/08 12:51:24;;;;;;;24.60;11.80;;;;;;;2.42;52.10;98687.35;219615;1282;139359;-64
2022/01/08 12:56:27;;;;;;;24.30;11.70;;;;;;;2.41;52.10;98680.35;219711;1283;140942;-62
2022/01/08 13:01:31;;;;;;;26.70;11.30;;;;;;;2.41;51.92;98677.92;220011;1282;139948;-62
2022/01/08 13:06:34;;;;;;;28.50;11.90;;;;;;;2.44;52.01;98682.70;219863;1282;139115;-61
2022/01/08 13:11:40;;;;;;;25.80;11.80;;;;;;;2.45;52.14;98682.86;219756;1282;139381;-62
2022/01/08 13:16:46;;;;;;;29.70;12.00;;;;;;;2.43;52.06;98679.23;219844;1282;139034;-61
2022/01/08 13:21:55;;;;;;;29.00;12.30;;;;;;;2.42;52.21;98676.12;219657;1282;139427;-63
2022/01/08 13:27:01;;;;;;;23.20;11.60;;;;;;;2.44;52.28;98673.44;219898;1283;141650;-62
2022/01/08 13:32:09;;;;;;;27.30;11.90;;;;;;;2.39;52.30;98674.48;219886;1282;138839;-61
2022/01/08 13:37:15;;;;;;;28.50;12.10;;;;;;;2.39;52.26;98670.81;219708;1283;139080;-63
2022/01/08 13:42:27;;;;;;;28.20;12.50;;;;;;;2.38;52.29;98671.54;219732;1284;140975;-62
2022/01/08 13:47:40;;;;;;;26.80;13.20;;;;;;;2.39;52.38;98673.11;219763;1282;138933;-63
2022/01/08 13:52:47;;;;;;;27.20;13.20;;;;;;;2.42;52.48;98677.54;219786;1283;140169;-64
2022/01/08 13:58:00;;;;;;;31.30;13.70;;;;;;;2.39;52.49;98672.74;219632;1282;138897;-65
2022/01/08 14:03:16;;;;;;;39.70;14.60;;;;;;;2.38;52.49;98672.59;219947;1282;139691;-63
2022/01/08 14:08:20;;;;;;;38.90;14.60;;;;;;;2.39;52.51;98674.66;219818;1282;139488;-63
2022/01/08 14:13:25;;;;;;;33.90;15.60;;;;;;;2.39;52.39;98665.38;219775;1282;140104;-65
2022/01/08 14:18:30;;;;;;;37.30;16.50;;;;;;;3.45;57.35;98659.79;219697;1282;138779;-63
2022/01/08 14:23:33;;;;;;;34.40;16.00;;;;;;;4.02;53.31;98654.05;219947;1282;140196;-60
2022/01/08 14:28:37;;;;;;;35.60;15.50;;;;;;;3.71;52.14;98653.04;219827;1282;138929;-61
2022/01/08 14:34:03;;;;;;;40.80;15.50;;;;;;;3.36;51.82;98652.50;219860;1282;138725;-63
2022/01/08 14:39:06;;;;;;;38.40;15.80;;;;;;;3.08;51.76;98643.77;219842;1282;140767;-62
2022/01/08 14:44:09;;;;;;;34.80;16.60;;;;;;;2.92;52.17;98646.83;219771;1282;139741;-62
2022/01/08 14:49:12;;;;;;;238.30;116.30;;;;;;;2.84;52.64;98655.35;219634;1282;140542;-64
2022/01/08 14:54:15;;;;;;;65.60;26.10;;;;;;;4.01;56.24;98645.83;219642;1282;140029;-65
2022/01/08 14:59:18;;;;;;;38.50;16.30;;;;;;;4.16;52.80;98633.80;219178;1283;139679;-60
2022/01/08 15:04:21;;;;;;;45.40;16.20;;;;;;;3.86;52.22;98624.71;219742;1283;139563;-63
2022/01/08 15:09:28;;;;;;;37.20;15.10;;;;;;;3.54;52.15;98627.41;219739;1282;141740;-65
2022/01/08 15:14:31;;;;;;;31.50;14.90;;;;;;;3.23;51.78;98630.39;219711;1282;140509;-65
2022/01/08 15:19:34;;;;;;;39.80;15.50;;;;;;;2.98;51.98;98631.34;219672;1282;138992;-64
2022/01/08 15:55:57;;;;;;;39.00;16.90;;;;;;;3.15;51.85;98604.44;214367;1315;636430;-64
2022/01/08 16:01:01;;;;;;;39.80;16.30;;;;;;;2.95;52.02;98599.23;218786;1289;223939;-62
2022/01/08 16:06:04;;;;;;;46.20;17.40;;;;;;;2.85;52.32;98593.66;218717;1287;143535;-64
2022/01/08 16:11:07;;;;;;;47.10;17.40;;;;;;;2.81;52.70;98593.65;219280;1286;140028;-67
2022/01/08 16:16:10;;;;;;;47.10;18.30;;;;;;;2.78;53.16;98589.91;219299;1286;137906;-65
2022/01/08 16:21:14;;;;;;;37.70;17.00;;;;;;;2.73;53.21;98586.05;219039;1286;138857;-62
2022/01/08 16:26:17;;;;;;;38.20;16.40;;;;;;;2.70;53.47;98580.23;219335;1286;139180;-63
2022/01/08 16:31:23;;;;;;;33.00;16.30;;;;;;;2.66;53.68;98578.62;219419;1286;139764;-62
2022/01/08 16:36:26;;;;;;;;;;;;;;;2.62;53.76;98581.21;219389;1286;138375;-64
2022/01/08 16:41:29;;;;;;;36.30;17.50;;;;;;;2.57;53.88;98575.95;219333;1286;126436;-62
2022/01/08 16:46:36;;;;;;;36.90;15.80;;;;;;;2.55;53.84;98574.14;218867;1286;138361;-64
2022/01/08 16:51:40;;;;;;;41.80;16.70;;;;;;;2.55;54.03;98572.73;219192;1286;138901;-62
2022/01/08 16:56:43;;;;;;;34.90;16.90;;;;;;;2.55;54.19;98577.09;219160;1286;138331;-61
2022/01/08 17:01:49;;;;;;;33.30;16.00;;;;;;;2.57;53.89;98577.19;219134;1286;138195;-63
2022/01/08 17:06:52;;;;;;;37.20;17.40;;;;;;;2.57;53.61;98574.54;220780;1280;139013;-61
2022/01/08 17:11:56;;;;;;;42.80;16.50;;;;;;;2.59;53.55;98568.72;220538;1279;138827;-63
2022/01/08 17:17:00;;;;;;;32.80;16.30;;;;;;;2.60;53.78;98569.20;220627;1280;138908;-66
2022/01/08 17:22:03;;;;;;;36.00;16.00;;;;;;;2.58;53.77;98565.23;220639;1279;138914;-65
2022/01/08 17:27:07;;;;;;;35.00;16.40;;;;;;;2.59;53.67;98556.29;220463;1280;138585;-63
2022/01/08 17:32:10;;;;;;;32.20;16.10;;;;;;;2.59;53.62;98553.83;220343;1279;138147;-64
2022/01/08 17:37:15;;;;;;;36.30;16.30;;;;;;;2.58;53.29;98551.92;220576;1280;138568;-62
2022/01/08 17:42:18;;;;;;;35.10;15.90;;;;;;;2.59;53.35;98543.48;220657;1279;138652;-64
2022/01/08 17:47:21;;;;;;;38.40;16.90;;;;;;;2.61;53.29;98544.99;220694;1279;138220;-61
2022/01/08 17:52:24;;;;;;;42.00;17.60;;;;;;;2.62;53.34;98543.03;220237;1279;138325;-62
2022/01/08 17:57:27;;;;;;;42.10;17.70;;;;;;;2.60;53.37;98535.73;220486;1279;139989;-63
2022/01/08 18:02:30;;;;;;;34.90;17.10;;;;;;;2.58;53.44;98531.44;220479;1280;137844;-62
2022/01/08 18:07:33;;;;;;;50.50;17.90;;;;;;;2.56;53.44;98533.78;220651;1280;138662;-62
2022/01/08 18:12:39;;;;;;;41.70;16.90;;;;;;;2.55;53.41;98525.98;220383;1280;138323;-63
2022/01/08 18:17:43;;;;;;;;;;;;;;;2.52;53.78;98521.86;220601;1280;139310;-61
2022/01/08 18:22:46;;;;;;;45.50;18.10;;;;;;;2.49;53.96;98518.84;220516;1280;124741;-62
2022/01/08 18:27:49;;;;;;;52.80;18.40;;;;;;;2.48;53.85;98518.67;220385;1280;138564;-63
2022/01/08 18:32:54;;;;;;;43.30;19.20;;;;;;;2.44;53.72;98514.29;220699;1279;138781;-63
2022/01/08 18:37:59;;;;;;;46.40;18.40;;;;;;;2.48;53.92;98504.69;220485;1280;139399;-57
2022/01/08 18:43:02;;;;;;;40.40;18.80;;;;;;;2.51;54.15;98501.06;220919;1279;138331;-61
2022/01/08 18:48:06;;;;;;;37.90;18.00;;;;;;;2.50;54.32;98491.33;220553;1280;139851;-62
2022/01/08 18:53:10;;;;;;;39.10;19.60;;;;;;;2.50;54.54;98482.04;220389;1280;138552;-62
2022/01/08 18:58:13;;;;;;;43.80;19.10;;;;;;;2.53;54.81;98467.55;220547;1280;140003;-63
2022/01/08 19:03:17;;;;;;;56.30;34.60;;;;;;;2.55;54.94;98464.17;220478;1279;138632;-60
2022/01/08 19:08:20;;;;;;;68.80;39.10;;;;;;;2.65;55.46;98460.42;220583;1280;139148;-62
2022/01/08 19:13:23;;;;;;;223.40;103.30;;;;;;;2.85;55.67;98448.09;220660;1279;138894;-61
2022/01/08 19:18:33;;;;;;;65.50;29.40;;;;;;;2.89;55.26;98443.20;220038;1278;140133;-65
2022/01/08 19:23:37;;;;;;;52.00;24.20;;;;;;;2.81;55.20;98436.69;220606;1280;140187;-63
2022/01/08 19:28:41;;;;;;;48.40;23.50;;;;;;;2.72;55.17;98432.49;220742;1279;138449;-64
2022/01/08 19:33:44;;;;;;;44.70;22.60;;;;;;;2.66;55.24;98425.21;220673;1278;139674;-65
2022/01/08 19:38:47;;;;;;;43.60;22.50;;;;;;;2.64;55.30;98413.55;220691;1278;139660;-63
2022/01/08 19:43:51;;;;;;;46.40;21.30;;;;;;;2.63;55.50;98404.70;220657;1279;139727;-63
2022/01/08 19:48:54;;;;;;;45.80;22.40;;;;;;;2.58;55.30;98406.25;220155;1280;138287;-62
2022/01/08 19:53:58;;;;;;;202.60;124.40;;;;;;;2.59;55.82;98402.73;220127;1280;138440;-63
2022/01/08 19:59:02;;;;;;;52.30;27.30;;;;;;;2.91;56.73;98393.01;220680;1279;139862;-63
2022/01/08 20:04:05;;;;;;;86.20;52.10;;;;;;;3.01;55.88;98393.11;220779;1278;138537;-62
2022/01/08 20:09:08;;;;;;;51.30;24.60;;;;;;;3.06;55.79;98398.33;220714;1279;139116;-62
2022/01/08 20:14:11;;;;;;;46.10;23.70;;;;;;;3.06;55.31;98394.30;220663;1279;138820;-63
2022/01/08 20:19:14;;;;;;;52.90;25.10;;;;;;;2.92;55.26;98390.31;220784;1280;138597;-62
2022/01/08 20:24:18;;;;;;;56.00;26.30;;;;;;;2.76;55.40;98387.66;220789;1280;139800;-61
2022/01/08 20:29:21;;;;;;;60.20;27.00;;;;;;;2.62;55.54;98381.23;220653;1279;140292;-61
2022/01/08 20:34:24;;;;;;;53.30;28.20;;;;;;;2.52;55.55;98372.87;220727;1279;138684;-62
2022/01/08 20:39:27;;;;;;;59.00;30.30;;;;;;;2.45;55.78;98366.88;220305;1280;139114;-62
2022/01/08 20:44:30;;;;;;;55.20;28.80;;;;;;;2.37;55.83;98355.26;220910;1278;138699;-62
2022/01/08 20:49:33;;;;;;;54.30;28.80;;;;;;;2.29;55.85;98346.67;220657;1278;138006;-63
2022/01/08 20:54:36;;;;;;;57.50;30.30;;;;;;;2.23;56.01;98337.98;220467;1280;138357;-62
2022/01/08 20:59:41;;;;;;;60.60;29.70;;;;;;;2.21;56.13;98327.23;219830;1280;139306;-64
2022/01/08 21:04:48;;;;;;;62.30;29.90;;;;;;;2.19;56.42;98321.15;219934;1280;138445;-63
2022/01/08 21:09:51;;;;;;;64.60;31.00;;;;;;;2.19;56.53;98311.20;220506;1280;138753;-63
2022/01/08 21:14:54;;;;;;;60.20;30.20;;;;;;;2.18;56.75;98307.55;220814;1280;138504;-64
2022/01/08 21:19:57;;;;;;;70.70;35.90;;;;;;;2.18;56.74;98304.95;220766;1279;138933;-61
2022/01/08 21:25:01;;;;;;;74.50;35.70;;;;;;;2.18;56.82;98296.04;220456;1280;138631;-61
2022/01/08 21:30:06;;;;;;;65.00;33.40;;;;;;;2.16;56.89;98295.91;220708;1280;138553;-62
2022/01/08 21:35:11;;;;;;;67.10;34.80;;;;;;;2.10;56.67;98290.69;220772;1279;139063;-62
2022/01/08 21:40:14;;;;;;;67.90;34.50;;;;;;;2.07;56.85;98285.77;220765;1280;138518;-61
2022/01/08 21:45:18;;;;;;;72.50;35.90;;;;;;;2.09;57.15;98275.53;220647;1280;139901;-62
2022/01/08 21:50:22;;;;;;;70.30;34.90;;;;;;;2.11;57.30;98266.02;220666;1277;139164;-63
2022/01/08 21:55:26;;;;;;;77.20;38.00;;;;;;;2.11;57.31;98259.72;220820;1279;139136;-64
2022/01/08 22:00:29;;;;;;;74.10;37.10;;;;;;;2.13;57.13;98246.17;220878;1279;138783;-64
2022/01/08 22:05:35;;;;;;;76.50;37.10;;;;;;;2.13;57.21;98238.45;220878;1279;138388;-63
2022/01/08 22:10:38;;;;;;;71.30;37.50;;;;;;;2.11;57.22;98238.03;220685;1278;138761;-66
2022/01/08 22:15:41;;;;;;;73.80;36.50;;;;;;;2.07;57.34;98231.20;220856;1279;139320;-65
2022/01/08 22:20:44;;;;;;;79.90;39.70;;;;;;;2.06;57.40;98224.21;220547;1280;140000;-63
2022/01/08 22:25:47;;;;;;;73.30;37.40;;;;;;;2.10;57.46;98216.88;220534;1280;138923;-62
2022/01/08 22:30:51;;;;;;;79.90;38.40;;;;;;;2.11;57.40;98215.44;220537;1280;138058;-64
2022/01/08 22:35:53;;;;;;;72.90;37.00;;;;;;;2.11;57.35;98217.20;220763;1279;138850;-62
2022/01/08 22:40:57;;;;;;;77.20;37.90;;;;;;;2.10;57.45;98212.34;220653;1279;138402;-64
2022/01/08 22:46:00;;;;;;;72.70;37.60;;;;;;;2.07;57.62;98206.69;220582;1278;138676;-64
2022/01/08 22:51:03;;;;;;;102.50;48.20;;;;;;;2.08;57.60;98205.44;220706;1278;139124;-61
2022/01/08 22:56:06;;;;;;;109.60;51.40;;;;;;;2.07;57.52;98195.50;220426;1280;139527;-62
2022/01/08 23:01:09;;;;;;;118.80;54.40;;;;;;;2.04;57.41;98186.70;220539;1280;139948;-63
2022/01/08 23:06:17;;;;;;;114.20;53.10;;;;;;;2.00;57.51;98184.23;220771;1278;140013;-63
2022/01/08 23:11:21;;;;;;;108.80;50.00;;;;;;;1.99;57.65;98177.31;220647;1280;140055;-64
2022/01/08 23:16:24;;;;;;;112.40;52.90;;;;;;;1.96;57.77;98176.02;220915;1278;139462;-64
2022/01/08 23:21:29;;;;;;;112.70;51.40;;;;;;;1.92;57.66;98168.69;220834;1279;138668;-64
2022/01/08 23:26:32;;;;;;;108.30;53.10;;;;;;;1.88;57.76;98156.92;220452;1280;139579;-65
2022/01/08 23:31:35;;;;;;;113.20;52.30;;;;;;;1.85;57.94;98145.15;220559;1278;138671;-64
2022/01/08 23:36:42;;;;;;;101.60;49.60;;;;;;;1.80;57.87;98133.29;220913;1279;138881;-64
2022/01/08 23:41:45;;;;;;;114.00;52.50;;;;;;;1.73;58.05;98124.84;220501;1281;138214;-64
2022/01/08 23:46:49;;;;;;;118.60;54.00;;;;;;;1.70;58.20;98120.80;220791;1279;141722;-66
2022/01/08 23:51:53;;;;;;;121.50;54.50;;;;;;;1.64;58.18;98113.48;220553;1280;139166;-63
2022/01/08 23:56:56;;;;;;;114.80;54.00;;;;;;;1.59;58.30;98107.94;220348;1280;138425;-63
